sensor_id;sensor_type;location;lat;lon;timestamp;temperature;humidity
20297;DHT22;10307;40.100;18.336;2022-12-10T00:02:00;16.80;99.90
20297;DHT22;10307;40.100;18.336;2022-12-10T00:04:27;16.80;99.90
20297;DHT22;10307;40.100;18.336;2022-12-10T00:06:53;16.80;99.90
20297;DHT22;10307;40.100;18.336;2022-12-10T00:09:20;16.80;99.90
20297;DHT22;10307;40.100;18.336;2022-12-10T00:11:46;16.80;99.90
20297;DHT22;10307;40.100;18.336;2022-12-10T00:14:13;16.70;99.90
20297;DHT22;10307;40.100;18.336;2022-12-10T00:16:40;16.80;99.90
20297;DHT22;10307;40.100;18.336;2022-12-10T00:19:06;16.70;99.90
20297;DHT22;10307;40.100;18.336;2022-12-10T00:21:34;16.70;99.90
20297;DHT22;10307;40.100;18.336;2022-12-10T00:24:02;16.70;99.90
20297;DHT22;10307;40.100;18.336;2022-12-10T00:26:36;16.70;99.90
20297;DHT22;10307;40.100;18.336;2022-12-10T00:29:05;16.70;99.90
20297;DHT22;10307;40.100;18.336;2022-12-10T00:31:34;16.70;99.90
20297;DHT22;10307;40.100;18.336;2022-12-10T00:34:04;16.70;99.90
20297;DHT22;10307;40.100;18.336;2022-12-10T00:36:40;16.70;99.90
20297;DHT22;10307;40.100;18.336;2022-12-10T00:39:09;16.70;99.90
20297;DHT22;10307;40.100;18.336;2022-12-10T00:41:36;16.60;99.90
20297;DHT22;10307;40.100;18.336;2022-12-10T00:44:02;16.70;99.90
20297;DHT22;10307;40.100;18.336;2022-12-10T00:46:29;16.60;99.90
20297;DHT22;10307;40.100;18.336;2022-12-10T00:48:57;16.60;99.90
20297;DHT22;10307;40.100;18.336;2022-12-10T00:51:24;16.60;99.90
20297;DHT22;10307;40.100;18.336;2022-12-10T00:53:53;16.60;99.90
20297;DHT22;10307;40.100;18.336;2022-12-10T00:56:26;16.70;99.90
20297;DHT22;10307;40.100;18.336;2022-12-10T00:58:53;16.60;99.90
20297;DHT22;10307;40.100;18.336;2022-12-10T01:01:31;16.70;99.90
20297;DHT22;10307;40.100;18.336;2022-12-10T01:04:05;16.60;99.90
20297;DHT22;10307;40.100;18.336;2022-12-10T01:06:35;16.60;99.90
20297;DHT22;10307;40.100;18.336;2022-12-10T01:09:04;16.60;99.90
20297;DHT22;10307;40.100;18.336;2022-12-10T01:11:38;16.60;99.90
20297;DHT22;10307;40.100;18.336;2022-12-10T01:14:06;16.60;99.90
20297;DHT22;10307;40.100;18.336;2022-12-10T01:16:33;16.60;99.90
20297;DHT22;10307;40.100;18.336;2022-12-10T01:18:59;16.60;99.90
20297;DHT22;10307;40.100;18.336;2022-12-10T01:21:27;16.60;99.90
20297;DHT22;10307;40.100;18.336;2022-12-10T01:23:56;16.60;99.90
20297;DHT22;10307;40.100;18.336;2022-12-10T01:26:26;16.60;99.90
20297;DHT22;10307;40.100;18.336;2022-12-10T01:28:54;16.60;99.90
20297;DHT22;10307;40.100;18.336;2022-12-10T01:31:51;16.60;99.90
20297;DHT22;10307;40.100;18.336;2022-12-10T01:34:17;16.60;99.90
20297;DHT22;10307;40.100;18.336;2022-12-10T01:36:45;16.50;99.90
20297;DHT22;10307;40.100;18.336;2022-12-10T01:39:16;16.50;99.90
20297;DHT22;10307;40.100;18.336;2022-12-10T01:41:46;16.50;99.90
20297;DHT22;10307;40.100;18.336;2022-12-10T01:46:48;16.50;99.90
20297;DHT22;10307;40.100;18.336;2022-12-10T01:49:21;16.50;99.90
20297;DHT22;10307;40.100;18.336;2022-12-10T01:51:51;16.50;99.90
20297;DHT22;10307;40.100;18.336;2022-12-10T01:54:24;16.40;99.90
20297;DHT22;10307;40.100;18.336;2022-12-10T01:57:07;16.40;99.90
20297;DHT22;10307;40.100;18.336;2022-12-10T01:59:35;16.40;99.90
20297;DHT22;10307;40.100;18.336;2022-12-10T02:05:15;16.40;99.90
20297;DHT22;10307;40.100;18.336;2022-12-10T02:08:14;16.40;99.90
20297;DHT22;10307;40.100;18.336;2022-12-10T02:11:16;16.40;99.90
20297;DHT22;10307;40.100;18.336;2022-12-10T02:13:57;16.40;99.90
20297;DHT22;10307;40.100;18.336;2022-12-10T02:16:31;16.40;99.90
20297;DHT22;10307;40.100;18.336;2022-12-10T02:21:58;16.40;99.90
20297;DHT22;10307;40.100;18.336;2022-12-10T02:24:29;16.40;99.90
20297;DHT22;10307;40.100;18.336;2022-12-10T02:27:14;16.40;99.90
20297;DHT22;10307;40.100;18.336;2022-12-10T02:29:43;16.40;99.90
20297;DHT22;10307;40.100;18.336;2022-12-10T02:32:25;16.40;99.90
20297;DHT22;10307;40.100;18.336;2022-12-10T02:34:57;16.40;99.90
20297;DHT22;10307;40.100;18.336;2022-12-10T02:37:30;16.40;99.90
20297;DHT22;10307;40.100;18.336;2022-12-10T02:40:02;16.40;99.90
20297;DHT22;10307;40.100;18.336;2022-12-10T02:42:38;16.40;99.90
20297;DHT22;10307;40.100;18.336;2022-12-10T02:45:08;16.40;99.90
20297;DHT22;10307;40.100;18.336;2022-12-10T02:47:36;16.40;99.90
20297;DHT22;10307;40.100;18.336;2022-12-10T02:50:06;16.40;99.90
20297;DHT22;10307;40.100;18.336;2022-12-10T02:52:33;16.40;99.90
20297;DHT22;10307;40.100;18.336;2022-12-10T02:55:00;16.40;99.90
20297;DHT22;10307;40.100;18.336;2022-12-10T03:00:18;16.40;99.90
20297;DHT22;10307;40.100;18.336;2022-12-10T03:03:11;16.40;99.90
20297;DHT22;10307;40.100;18.336;2022-12-10T03:05:56;16.40;99.90
20297;DHT22;10307;40.100;18.336;2022-12-10T03:08:38;16.40;99.90
20297;DHT22;10307;40.100;18.336;2022-12-10T03:11:22;16.40;99.90
20297;DHT22;10307;40.100;18.336;2022-12-10T03:14:09;16.40;99.90
20297;DHT22;10307;40.100;18.336;2022-12-10T03:16:42;16.40;99.90
20297;DHT22;10307;40.100;18.336;2022-12-10T03:19:17;16.40;99.90
20297;DHT22;10307;40.100;18.336;2022-12-10T03:21:46;16.40;99.90
20297;DHT22;10307;40.100;18.336;2022-12-10T03:24:14;16.40;99.90
20297;DHT22;10307;40.100;18.336;2022-12-10T03:26:45;16.40;99.90
20297;DHT22;10307;40.100;18.336;2022-12-10T03:29:51;16.30;99.90
20297;DHT22;10307;40.100;18.336;2022-12-10T03:32:23;16.40;99.90
20297;DHT22;10307;40.100;18.336;2022-12-10T03:34:52;16.40;99.90
20297;DHT22;10307;40.100;18.336;2022-12-10T03:37:21;16.30;99.90
20297;DHT22;10307;40.100;18.336;2022-12-10T03:39:47;16.40;99.90
20297;DHT22;10307;40.100;18.336;2022-12-10T03:42:15;16.30;99.90
20297;DHT22;10307;40.100;18.336;2022-12-10T03:44:41;16.30;99.90
20297;DHT22;10307;40.100;18.336;2022-12-10T03:47:12;16.30;99.90
20297;DHT22;10307;40.100;18.336;2022-12-10T03:49:39;16.40;99.90
20297;DHT22;10307;40.100;18.336;2022-12-10T03:52:06;16.40;99.90
20297;DHT22;10307;40.100;18.336;2022-12-10T03:54:32;16.30;99.90
20297;DHT22;10307;40.100;18.336;2022-12-10T03:56:58;16.30;99.90
20297;DHT22;10307;40.100;18.336;2022-12-10T03:59:25;16.30;99.90
20297;DHT22;10307;40.100;18.336;2022-12-10T04:01:51;16.30;99.90
20297;DHT22;10307;40.100;18.336;2022-12-10T04:04:18;16.30;99.90
20297;DHT22;10307;40.100;18.336;2022-12-10T04:06:44;16.30;99.90
20297;DHT22;10307;40.100;18.336;2022-12-10T04:09:12;16.30;99.90
20297;DHT22;10307;40.100;18.336;2022-12-10T04:11:39;16.30;99.90
20297;DHT22;10307;40.100;18.336;2022-12-10T04:14:09;16.30;99.90
20297;DHT22;10307;40.100;18.336;2022-12-10T04:16:54;16.30;99.90
20297;DHT22;10307;40.100;18.336;2022-12-10T04:19:21;16.30;99.90
20297;DHT22;10307;40.100;18.336;2022-12-10T04:21:48;16.30;99.90
20297;DHT22;10307;40.100;18.336;2022-12-10T04:24:35;16.30;99.90
20297;DHT22;10307;40.100;18.336;2022-12-10T04:27:21;16.30;99.90
20297;DHT22;10307;40.100;18.336;2022-12-10T04:29:49;16.30;99.90
20297;DHT22;10307;40.100;18.336;2022-12-10T04:32:17;16.30;99.90
20297;DHT22;10307;40.100;18.336;2022-12-10T04:34:43;16.30;99.90
20297;DHT22;10307;40.100;18.336;2022-12-10T04:37:10;16.30;99.90
20297;DHT22;10307;40.100;18.336;2022-12-10T04:39:39;16.30;99.90
20297;DHT22;10307;40.100;18.336;2022-12-10T04:42:06;16.30;99.90
20297;DHT22;10307;40.100;18.336;2022-12-10T04:44:33;16.30;99.90
20297;DHT22;10307;40.100;18.336;2022-12-10T04:47:00;16.30;99.90
20297;DHT22;10307;40.100;18.336;2022-12-10T04:49:27;16.30;99.90
20297;DHT22;10307;40.100;18.336;2022-12-10T04:51:53;16.30;99.90
20297;DHT22;10307;40.100;18.336;2022-12-10T04:54:21;16.30;99.90
20297;DHT22;10307;40.100;18.336;2022-12-10T04:56:47;16.30;99.90
20297;DHT22;10307;40.100;18.336;2022-12-10T04:59:15;16.30;99.90
20297;DHT22;10307;40.100;18.336;2022-12-10T05:01:41;16.30;99.90
20297;DHT22;10307;40.100;18.336;2022-12-10T05:04:10;16.30;99.90
20297;DHT22;10307;40.100;18.336;2022-12-10T05:06:37;16.30;99.90
20297;DHT22;10307;40.100;18.336;2022-12-10T05:09:05;16.20;99.90
20297;DHT22;10307;40.100;18.336;2022-12-10T05:11:32;16.30;99.90
20297;DHT22;10307;40.100;18.336;2022-12-10T05:13:59;16.30;99.90
20297;DHT22;10307;40.100;18.336;2022-12-10T05:16:27;16.30;99.90
20297;DHT22;10307;40.100;18.336;2022-12-10T05:18:55;16.30;99.90
20297;DHT22;10307;40.100;18.336;2022-12-10T05:21:23;16.30;99.90
20297;DHT22;10307;40.100;18.336;2022-12-10T05:23:51;16.30;99.90
20297;DHT22;10307;40.100;18.336;2022-12-10T05:26:20;16.30;99.90
20297;DHT22;10307;40.100;18.336;2022-12-10T05:28:52;16.30;99.90
20297;DHT22;10307;40.100;18.336;2022-12-10T05:31:21;16.30;99.90
20297;DHT22;10307;40.100;18.336;2022-12-10T05:33:48;16.40;99.90
20297;DHT22;10307;40.100;18.336;2022-12-10T05:36:17;16.40;99.90
20297;DHT22;10307;40.100;18.336;2022-12-10T05:38:44;16.40;99.90
20297;DHT22;10307;40.100;18.336;2022-12-10T05:41:22;16.40;99.90
20297;DHT22;10307;40.100;18.336;2022-12-10T05:43:49;16.40;99.90
20297;DHT22;10307;40.100;18.336;2022-12-10T05:46:18;16.40;99.90
20297;DHT22;10307;40.100;18.336;2022-12-10T05:48:45;16.40;99.90
20297;DHT22;10307;40.100;18.336;2022-12-10T05:51:14;16.40;99.90
20297;DHT22;10307;40.100;18.336;2022-12-10T05:53:41;16.40;99.90
20297;DHT22;10307;40.100;18.336;2022-12-10T05:56:11;16.40;99.90
20297;DHT22;10307;40.100;18.336;2022-12-10T05:58:40;16.40;99.90
20297;DHT22;10307;40.100;18.336;2022-12-10T06:01:12;16.40;99.90
20297;DHT22;10307;40.100;18.336;2022-12-10T06:03:39;16.40;99.90
20297;DHT22;10307;40.100;18.336;2022-12-10T06:06:06;16.50;99.90
20297;DHT22;10307;40.100;18.336;2022-12-10T06:08:33;16.40;99.90
20297;DHT22;10307;40.100;18.336;2022-12-10T06:11:02;16.50;99.90
20297;DHT22;10307;40.100;18.336;2022-12-10T06:13:29;16.50;99.90
20297;DHT22;10307;40.100;18.336;2022-12-10T06:15:55;16.50;99.90
20297;DHT22;10307;40.100;18.336;2022-12-10T06:18:23;16.50;99.90
20297;DHT22;10307;40.100;18.336;2022-12-10T06:20:50;16.50;99.90
20297;DHT22;10307;40.100;18.336;2022-12-10T06:23:16;16.50;99.90
20297;DHT22;10307;40.100;18.336;2022-12-10T06:25:42;16.50;99.90
20297;DHT22;10307;40.100;18.336;2022-12-10T06:28:08;16.50;99.90
20297;DHT22;10307;40.100;18.336;2022-12-10T06:30:35;16.50;99.90
20297;DHT22;10307;40.100;18.336;2022-12-10T06:33:01;16.50;99.90
20297;DHT22;10307;40.100;18.336;2022-12-10T06:35:28;16.50;99.90
20297;DHT22;10307;40.100;18.336;2022-12-10T06:37:54;16.50;99.90
20297;DHT22;10307;40.100;18.336;2022-12-10T06:40:20;16.60;99.90
20297;DHT22;10307;40.100;18.336;2022-12-10T06:42:51;16.60;99.90
20297;DHT22;10307;40.100;18.336;2022-12-10T06:45:18;16.60;99.90
20297;DHT22;10307;40.100;18.336;2022-12-10T06:47:44;16.60;99.90
20297;DHT22;10307;40.100;18.336;2022-12-10T06:50:11;16.60;99.90
20297;DHT22;10307;40.100;18.336;2022-12-10T06:52:39;16.60;99.90
20297;DHT22;10307;40.100;18.336;2022-12-10T06:55:06;16.60;99.90
20297;DHT22;10307;40.100;18.336;2022-12-10T06:57:32;16.70;99.90
20297;DHT22;10307;40.100;18.336;2022-12-10T06:59:58;16.70;99.90
20297;DHT22;10307;40.100;18.336;2022-12-10T07:02:25;16.70;99.90
20297;DHT22;10307;40.100;18.336;2022-12-10T07:04:51;16.70;99.90
20297;DHT22;10307;40.100;18.336;2022-12-10T07:07:17;16.70;99.90
20297;DHT22;10307;40.100;18.336;2022-12-10T07:09:44;16.70;99.90
20297;DHT22;10307;40.100;18.336;2022-12-10T07:12:10;16.70;99.90
20297;DHT22;10307;40.100;18.336;2022-12-10T07:14:36;16.80;99.90
20297;DHT22;10307;40.100;18.336;2022-12-10T07:17:03;16.80;99.90
20297;DHT22;10307;40.100;18.336;2022-12-10T07:19:31;16.80;99.90
20297;DHT22;10307;40.100;18.336;2022-12-10T07:21:57;16.80;99.90
20297;DHT22;10307;40.100;18.336;2022-12-10T07:24:23;16.90;99.90
20297;DHT22;10307;40.100;18.336;2022-12-10T07:26:50;16.80;99.90
20297;DHT22;10307;40.100;18.336;2022-12-10T07:29:21;16.80;99.90
20297;DHT22;10307;40.100;18.336;2022-12-10T07:31:48;16.90;99.90
20297;DHT22;10307;40.100;18.336;2022-12-10T07:34:15;16.90;99.90
20297;DHT22;10307;40.100;18.336;2022-12-10T07:36:42;16.90;99.90
20297;DHT22;10307;40.100;18.336;2022-12-10T07:39:10;16.90;99.90
20297;DHT22;10307;40.100;18.336;2022-12-10T07:41:50;16.90;99.90
20297;DHT22;10307;40.100;18.336;2022-12-10T07:44:19;17.00;99.90
20297;DHT22;10307;40.100;18.336;2022-12-10T07:46:49;17.00;99.90
20297;DHT22;10307;40.100;18.336;2022-12-10T07:49:15;17.00;99.90
20297;DHT22;10307;40.100;18.336;2022-12-10T07:51:46;17.00;99.90
20297;DHT22;10307;40.100;18.336;2022-12-10T07:54:14;17.00;99.90
20297;DHT22;10307;40.100;18.336;2022-12-10T07:56:41;17.00;99.90
20297;DHT22;10307;40.100;18.336;2022-12-10T07:59:07;17.00;99.90
20297;DHT22;10307;40.100;18.336;2022-12-10T08:01:33;17.10;99.90
20297;DHT22;10307;40.100;18.336;2022-12-10T08:04:00;17.10;99.90
20297;DHT22;10307;40.100;18.336;2022-12-10T08:06:28;17.10;99.90
20297;DHT22;10307;40.100;18.336;2022-12-10T08:08:57;17.10;99.90
20297;DHT22;10307;40.100;18.336;2022-12-10T08:11:24;17.20;99.90
20297;DHT22;10307;40.100;18.336;2022-12-10T08:13:52;17.20;99.90
20297;DHT22;10307;40.100;18.336;2022-12-10T08:16:21;17.20;99.90
20297;DHT22;10307;40.100;18.336;2022-12-10T08:18:58;17.30;99.90
20297;DHT22;10307;40.100;18.336;2022-12-10T08:21:28;17.40;99.90
20297;DHT22;10307;40.100;18.336;2022-12-10T08:23:55;17.40;99.90
20297;DHT22;10307;40.100;18.336;2022-12-10T08:26:25;17.50;99.90
20297;DHT22;10307;40.100;18.336;2022-12-10T08:28:54;17.60;99.90
20297;DHT22;10307;40.100;18.336;2022-12-10T08:31:22;17.70;99.90
20297;DHT22;10307;40.100;18.336;2022-12-10T08:33:49;17.70;99.90
20297;DHT22;10307;40.100;18.336;2022-12-10T08:36:17;17.80;99.90
20297;DHT22;10307;40.100;18.336;2022-12-10T08:38:44;17.80;99.90
20297;DHT22;10307;40.100;18.336;2022-12-10T08:41:14;17.80;99.90
20297;DHT22;10307;40.100;18.336;2022-12-10T08:43:41;17.80;99.90
20297;DHT22;10307;40.100;18.336;2022-12-10T08:46:09;17.80;99.90
20297;DHT22;10307;40.100;18.336;2022-12-10T08:48:36;17.80;99.90
20297;DHT22;10307;40.100;18.336;2022-12-10T08:51:04;17.80;99.90
20297;DHT22;10307;40.100;18.336;2022-12-10T08:53:31;17.80;99.90
20297;DHT22;10307;40.100;18.336;2022-12-10T08:55:57;17.90;99.90
20297;DHT22;10307;40.100;18.336;2022-12-10T08:58:24;17.80;99.90
20297;DHT22;10307;40.100;18.336;2022-12-10T09:00:50;17.90;99.90
20297;DHT22;10307;40.100;18.336;2022-12-10T09:03:17;17.90;99.90
20297;DHT22;10307;40.100;18.336;2022-12-10T09:05:44;17.90;99.90
20297;DHT22;10307;40.100;18.336;2022-12-10T09:08:10;17.90;99.90
20297;DHT22;10307;40.100;18.336;2022-12-10T09:10:38;17.90;99.90
20297;DHT22;10307;40.100;18.336;2022-12-10T09:13:05;18.00;99.90
20297;DHT22;10307;40.100;18.336;2022-12-10T09:15:31;18.00;99.90
20297;DHT22;10307;40.100;18.336;2022-12-10T09:17:58;18.10;99.90
20297;DHT22;10307;40.100;18.336;2022-12-10T09:20:24;18.10;99.90
20297;DHT22;10307;40.100;18.336;2022-12-10T09:22:51;18.00;99.90
20297;DHT22;10307;40.100;18.336;2022-12-10T09:25:17;18.10;99.90
20297;DHT22;10307;40.100;18.336;2022-12-10T09:27:47;18.10;99.90
20297;DHT22;10307;40.100;18.336;2022-12-10T09:30:14;18.10;99.90
20297;DHT22;10307;40.100;18.336;2022-12-10T09:32:40;18.10;99.90
20297;DHT22;10307;40.100;18.336;2022-12-10T09:35:07;18.10;99.90
20297;DHT22;10307;40.100;18.336;2022-12-10T09:37:34;18.10;99.90
20297;DHT22;10307;40.100;18.336;2022-12-10T09:40:01;18.10;99.90
20297;DHT22;10307;40.100;18.336;2022-12-10T09:43:00;18.10;99.90
20297;DHT22;10307;40.100;18.336;2022-12-10T09:45:46;18.10;99.90
20297;DHT22;10307;40.100;18.336;2022-12-10T09:51:28;18.00;99.90
20297;DHT22;10307;40.100;18.336;2022-12-10T09:53:57;18.00;99.90
20297;DHT22;10307;40.100;18.336;2022-12-10T09:56:31;18.00;99.90
20297;DHT22;10307;40.100;18.336;2022-12-10T09:59:08;18.00;99.90
20297;DHT22;10307;40.100;18.336;2022-12-10T10:01:38;18.00;99.90
20297;DHT22;10307;40.100;18.336;2022-12-10T10:04:05;18.00;99.90
20297;DHT22;10307;40.100;18.336;2022-12-10T10:06:32;18.00;99.90
20297;DHT22;10307;40.100;18.336;2022-12-10T10:09:02;18.00;99.90
20297;DHT22;10307;40.100;18.336;2022-12-10T10:11:31;18.00;99.90
20297;DHT22;10307;40.100;18.336;2022-12-10T10:14:01;18.00;99.90
20297;DHT22;10307;40.100;18.336;2022-12-10T10:16:37;18.00;99.90
20297;DHT22;10307;40.100;18.336;2022-12-10T10:19:21;18.00;99.90
20297;DHT22;10307;40.100;18.336;2022-12-10T10:22:05;18.00;99.90
20297;DHT22;10307;40.100;18.336;2022-12-10T10:24:40;18.00;99.90
20297;DHT22;10307;40.100;18.336;2022-12-10T10:27:28;18.00;99.90
20297;DHT22;10307;40.100;18.336;2022-12-10T10:29:57;18.00;99.90
20297;DHT22;10307;40.100;18.336;2022-12-10T10:32:27;18.00;99.90
20297;DHT22;10307;40.100;18.336;2022-12-10T10:34:57;18.00;99.90
20297;DHT22;10307;40.100;18.336;2022-12-10T10:39:57;18.00;99.90
20297;DHT22;10307;40.100;18.336;2022-12-10T10:42:42;18.00;99.90
20297;DHT22;10307;40.100;18.336;2022-12-10T10:45:32;18.00;99.90
20297;DHT22;10307;40.100;18.336;2022-12-10T10:48:18;18.00;99.90
20297;DHT22;10307;40.100;18.336;2022-12-10T10:50:47;18.00;99.90
20297;DHT22;10307;40.100;18.336;2022-12-10T10:53:30;18.00;99.90
20297;DHT22;10307;40.100;18.336;2022-12-10T10:56:16;18.00;99.90
20297;DHT22;10307;40.100;18.336;2022-12-10T10:58:54;18.00;99.90
20297;DHT22;10307;40.100;18.336;2022-12-10T11:01:24;18.00;99.90
20297;DHT22;10307;40.100;18.336;2022-12-10T11:03:58;18.00;99.90
20297;DHT22;10307;40.100;18.336;2022-12-10T11:06:25;18.00;99.90
20297;DHT22;10307;40.100;18.336;2022-12-10T11:08:57;17.90;99.90
20297;DHT22;10307;40.100;18.336;2022-12-10T11:11:39;17.90;99.90
20297;DHT22;10307;40.100;18.336;2022-12-10T11:14:24;17.90;99.90
20297;DHT22;10307;40.100;18.336;2022-12-10T11:17:03;18.00;99.90
20297;DHT22;10307;40.100;18.336;2022-12-10T11:20:01;18.00;99.90
20297;DHT22;10307;40.100;18.336;2022-12-10T11:22:33;17.90;99.90
20297;DHT22;10307;40.100;18.336;2022-12-10T11:25:00;18.00;99.90
20297;DHT22;10307;40.100;18.336;2022-12-10T11:30:18;18.00;99.90
20297;DHT22;10307;40.100;18.336;2022-12-10T11:33:24;18.00;99.90
20297;DHT22;10307;40.100;18.336;2022-12-10T11:36:04;18.00;99.90
20297;DHT22;10307;40.100;18.336;2022-12-10T11:38:54;18.00;99.90
20297;DHT22;10307;40.100;18.336;2022-12-10T11:52:22;18.20;99.90
20297;DHT22;10307;40.100;18.336;2022-12-10T11:57:48;18.30;99.90
20297;DHT22;10307;40.100;18.336;2022-12-10T12:00:18;18.30;99.90
20297;DHT22;10307;40.100;18.336;2022-12-10T12:02:55;18.30;99.90
20297;DHT22;10307;40.100;18.336;2022-12-10T12:05:49;18.30;99.90
20297;DHT22;10307;40.100;18.336;2022-12-10T12:14:07;18.30;99.90
20297;DHT22;10307;40.100;18.336;2022-12-10T12:16:42;18.40;99.90
20297;DHT22;10307;40.100;18.336;2022-12-10T12:22:37;18.40;99.90
20297;DHT22;10307;40.100;18.336;2022-12-10T12:25:10;18.30;99.90
20297;DHT22;10307;40.100;18.336;2022-12-10T12:27:46;18.30;99.90
20297;DHT22;10307;40.100;18.336;2022-12-10T12:30:16;18.30;99.90
20297;DHT22;10307;40.100;18.336;2022-12-10T12:35:45;18.20;99.90
20297;DHT22;10307;40.100;18.336;2022-12-10T12:38:27;18.20;99.90
20297;DHT22;10307;40.100;18.336;2022-12-10T12:44:04;18.30;99.90
20297;DHT22;10307;40.100;18.336;2022-12-10T12:46:44;18.30;99.90
20297;DHT22;10307;40.100;18.336;2022-12-10T12:49:30;18.30;99.90
20297;DHT22;10307;40.100;18.336;2022-12-10T12:54:30;18.30;99.90
20297;DHT22;10307;40.100;18.336;2022-12-10T12:57:15;18.40;99.90
20297;DHT22;10307;40.100;18.336;2022-12-10T13:00:04;18.30;99.90
20297;DHT22;10307;40.100;18.336;2022-12-10T13:05:39;18.40;99.90
20297;DHT22;10307;40.100;18.336;2022-12-10T13:08:23;18.30;99.90
20297;DHT22;10307;40.100;18.336;2022-12-10T13:10:58;18.40;99.90
20297;DHT22;10307;40.100;18.336;2022-12-10T13:13:28;18.30;99.90
20297;DHT22;10307;40.100;18.336;2022-12-10T13:15:55;18.30;99.90
20297;DHT22;10307;40.100;18.336;2022-12-10T13:18:37;18.40;99.90
20297;DHT22;10307;40.100;18.336;2022-12-10T13:21:26;18.40;99.90
20297;DHT22;10307;40.100;18.336;2022-12-10T13:24:18;18.40;99.90
20297;DHT22;10307;40.100;18.336;2022-12-10T13:27:02;18.40;99.90
20297;DHT22;10307;40.100;18.336;2022-12-10T13:29:57;18.40;99.90
20297;DHT22;10307;40.100;18.336;2022-12-10T13:43:20;18.20;99.90
20297;DHT22;10307;40.100;18.336;2022-12-10T13:48:51;18.20;99.90
20297;DHT22;10307;40.100;18.336;2022-12-10T13:57:22;18.20;99.90
20297;DHT22;10307;40.100;18.336;2022-12-10T14:00:16;18.10;99.90
20297;DHT22;10307;40.100;18.336;2022-12-10T14:07:55;18.10;99.90
20297;DHT22;10307;40.100;18.336;2022-12-10T14:10:33;18.00;99.90
20297;DHT22;10307;40.100;18.336;2022-12-10T14:13:02;18.00;99.90
20297;DHT22;10307;40.100;18.336;2022-12-10T14:15:30;17.90;99.90
20297;DHT22;10307;40.100;18.336;2022-12-10T14:18:02;17.90;99.90
20297;DHT22;10307;40.100;18.336;2022-12-10T14:20:31;17.90;99.90
20297;DHT22;10307;40.100;18.336;2022-12-10T14:23:04;17.90;99.90
20297;DHT22;10307;40.100;18.336;2022-12-10T14:25:51;17.90;99.90
20297;DHT22;10307;40.100;18.336;2022-12-10T14:28:18;17.90;99.90
20297;DHT22;10307;40.100;18.336;2022-12-10T14:30:47;17.80;99.90
20297;DHT22;10307;40.100;18.336;2022-12-10T14:33:23;17.80;99.90
20297;DHT22;10307;40.100;18.336;2022-12-10T14:35:51;17.80;99.90
20297;DHT22;10307;40.100;18.336;2022-12-10T14:38:33;17.80;99.90
20297;DHT22;10307;40.100;18.336;2022-12-10T14:41:01;17.70;99.90
20297;DHT22;10307;40.100;18.336;2022-12-10T14:43:38;17.70;99.90
20297;DHT22;10307;40.100;18.336;2022-12-10T14:46:17;17.70;99.90
20297;DHT22;10307;40.100;18.336;2022-12-10T14:48:46;17.70;99.90
20297;DHT22;10307;40.100;18.336;2022-12-10T14:51:16;17.70;99.90
20297;DHT22;10307;40.100;18.336;2022-12-10T14:53:46;17.70;99.90
20297;DHT22;10307;40.100;18.336;2022-12-10T14:56:25;17.70;99.90
20297;DHT22;10307;40.100;18.336;2022-12-10T14:59:09;17.70;99.90
20297;DHT22;10307;40.100;18.336;2022-12-10T15:01:40;17.70;99.90
20297;DHT22;10307;40.100;18.336;2022-12-10T15:04:14;17.70;99.90
20297;DHT22;10307;40.100;18.336;2022-12-10T15:06:42;17.70;99.90
20297;DHT22;10307;40.100;18.336;2022-12-10T15:09:35;17.70;99.90
20297;DHT22;10307;40.100;18.336;2022-12-10T15:12:01;17.70;99.90
20297;DHT22;10307;40.100;18.336;2022-12-10T15:14:30;17.70;99.90
20297;DHT22;10307;40.100;18.336;2022-12-10T15:16:58;17.70;99.90
20297;DHT22;10307;40.100;18.336;2022-12-10T15:19:30;17.70;99.90
20297;DHT22;10307;40.100;18.336;2022-12-10T15:22:02;17.70;99.90
20297;DHT22;10307;40.100;18.336;2022-12-10T15:24:41;17.70;99.90
20297;DHT22;10307;40.100;18.336;2022-12-10T15:27:20;17.80;99.90
20297;DHT22;10307;40.100;18.336;2022-12-10T15:29:47;17.70;99.90
20297;DHT22;10307;40.100;18.336;2022-12-10T15:32:22;17.80;99.90
20297;DHT22;10307;40.100;18.336;2022-12-10T15:35:17;17.80;99.90
20297;DHT22;10307;40.100;18.336;2022-12-10T15:37:50;17.80;99.90
20297;DHT22;10307;40.100;18.336;2022-12-10T15:40:24;17.70;99.90
20297;DHT22;10307;40.100;18.336;2022-12-10T15:42:51;17.70;99.90
20297;DHT22;10307;40.100;18.336;2022-12-10T15:45:25;17.70;99.90
20297;DHT22;10307;40.100;18.336;2022-12-10T15:47:57;17.70;99.90
20297;DHT22;10307;40.100;18.336;2022-12-10T15:50:25;17.80;99.90
20297;DHT22;10307;40.100;18.336;2022-12-10T15:52:52;17.70;99.90
20297;DHT22;10307;40.100;18.336;2022-12-10T15:55:19;17.80;99.90
20297;DHT22;10307;40.100;18.336;2022-12-10T15:57:46;17.70;99.90
20297;DHT22;10307;40.100;18.336;2022-12-10T16:00:25;17.80;99.90
20297;DHT22;10307;40.100;18.336;2022-12-10T16:02:59;17.80;99.90
20297;DHT22;10307;40.100;18.336;2022-12-10T16:05:33;17.80;99.90
20297;DHT22;10307;40.100;18.336;2022-12-10T16:08:20;17.80;99.90
20297;DHT22;10307;40.100;18.336;2022-12-10T16:10:48;17.90;99.90
20297;DHT22;10307;40.100;18.336;2022-12-10T16:13:22;17.90;99.90
20297;DHT22;10307;40.100;18.336;2022-12-10T16:15:54;18.00;99.90
20297;DHT22;10307;40.100;18.336;2022-12-10T16:18:22;18.00;99.90
20297;DHT22;10307;40.100;18.336;2022-12-10T16:20:49;18.00;99.90
20297;DHT22;10307;40.100;18.336;2022-12-10T16:23:16;18.00;99.90
20297;DHT22;10307;40.100;18.336;2022-12-10T16:25:43;17.90;99.90
20297;DHT22;10307;40.100;18.336;2022-12-10T16:28:14;17.90;99.90
20297;DHT22;10307;40.100;18.336;2022-12-10T16:30:53;17.90;99.90
20297;DHT22;10307;40.100;18.336;2022-12-10T16:33:22;17.90;99.90
20297;DHT22;10307;40.100;18.336;2022-12-10T16:35:50;17.90;99.90
20297;DHT22;10307;40.100;18.336;2022-12-10T16:38:17;17.90;99.90
20297;DHT22;10307;40.100;18.336;2022-12-10T16:40:45;17.90;99.90
20297;DHT22;10307;40.100;18.336;2022-12-10T16:43:20;17.90;99.90
20297;DHT22;10307;40.100;18.336;2022-12-10T16:45:47;17.80;99.90
20297;DHT22;10307;40.100;18.336;2022-12-10T16:48:14;17.80;99.90
20297;DHT22;10307;40.100;18.336;2022-12-10T16:50:41;17.80;99.90
20297;DHT22;10307;40.100;18.336;2022-12-10T16:53:17;17.80;99.90
20297;DHT22;10307;40.100;18.336;2022-12-10T16:55:45;17.70;99.90
20297;DHT22;10307;40.100;18.336;2022-12-10T16:58:13;17.70;99.90
20297;DHT22;10307;40.100;18.336;2022-12-10T17:00:45;17.70;99.90
20297;DHT22;10307;40.100;18.336;2022-12-10T17:03:14;17.70;99.90